Kilby, North Carolina
Current Conditions -  °F | °C
As of 2:53 PM on Tuesday 21 Oct 2014 (Local Time) from KHKY Reporting Station
Clear Clear  
Wind Chill: 70°   Ceiling: Unl
Heat Index: 70°   Visibility: 10mi
Dew Point: 42°   Wind: 12mph
Humidity: 36%   Direction: 290°WNW
Pressure: 29.89"   Gusts: NA
Location:  35.9243°N, 81.216°W
Report Text: KHKY 211853Z 29010KT 10SM CLR 21/06 A2989 RMK AO2 SLP105 T02110056
Loading
Personal Weather Stations






























Interactive Weather Map
Tropical Storm Tracking
New forecast layout! Learn more

10-Day Weather Forecast

Advertisements
Track Severe Weather on mobile